createdAt,value
2019-05-15T00:01:28.726Z,84.30
2019-05-15T00:06:28.580Z,84.20
2019-05-15T00:08:58.839Z,84.60
2019-05-15T00:11:28.744Z,84.50
2019-05-15T00:13:58.963Z,84.50
2019-05-15T00:16:30.356Z,84.40
2019-05-15T00:18:59.169Z,84.40
2019-05-15T00:21:28.818Z,84.30
2019-05-15T00:26:27.284Z,84.40
2019-05-15T00:29:09.539Z,84.50
2019-05-15T00:31:28.988Z,84.50
2019-05-15T00:33:58.813Z,84.30
2019-05-15T00:36:28.639Z,84.40
2019-05-15T00:38:58.938Z,84.40
2019-05-15T00:41:27.875Z,84.20
2019-05-15T00:43:58.461Z,84.20
2019-05-15T00:46:28.904Z,84.20
2019-05-15T00:48:59.033Z,83.90
2019-05-15T00:51:28.433Z,84.00
2019-05-15T00:56:28.458Z,83.90
2019-05-15T01:01:28.679Z,84.10
2019-05-15T01:03:58.604Z,84.30
2019-05-15T01:06:28.442Z,84.30
2019-05-15T01:08:58.928Z,84.50
2019-05-15T01:11:28.451Z,84.60
2019-05-15T01:13:58.530Z,84.70
2019-05-15T01:16:28.151Z,84.80
2019-05-15T01:18:58.553Z,84.90
2019-05-15T01:21:27.920Z,85.10
2019-05-15T01:23:58.814Z,84.90
2019-05-15T01:26:28.233Z,85.10
2019-05-15T01:31:28.564Z,85.20
2019-05-15T01:33:58.330Z,85.10
2019-05-15T01:39:18.335Z,85.70
2019-05-15T01:41:49.352Z,85.50
2019-05-15T01:44:17.956Z,85.70
2019-05-15T01:46:48.337Z,85.80
2019-05-15T01:49:18.717Z,85.60
2019-05-15T01:51:47.979Z,85.90
2019-05-15T01:54:18.580Z,86.00
2019-05-15T01:56:49.217Z,86.00
2019-05-15T01:59:18.787Z,85.90
2019-05-15T02:01:48.473Z,86.10
2019-05-15T02:06:48.217Z,86.20
2019-05-15T02:09:18.559Z,86.00
2019-05-15T02:11:48.919Z,86.00
2019-05-15T02:14:18.934Z,86.30
2019-05-15T02:16:48.398Z,86.30
2019-05-15T02:19:19.213Z,86.30
2019-05-15T02:21:48.660Z,86.00
2019-05-15T02:24:18.891Z,86.10
2019-05-15T02:26:48.185Z,85.70
2019-05-15T02:29:20.385Z,85.70
2019-05-15T02:31:50.274Z,85.70
2019-05-15T02:34:39.553Z,85.60
2019-05-15T02:37:08.926Z,85.60
2019-05-15T02:39:38.882Z,85.80
2019-05-15T02:42:09.886Z,85.70
2019-05-15T02:44:39.940Z,85.70
2019-05-15T02:47:09.255Z,85.80
2019-05-15T02:49:39.615Z,85.60
2019-05-15T02:52:09.784Z,85.60
2019-05-15T02:54:39.964Z,85.60
2019-05-15T02:57:09.842Z,86.00
2019-05-15T03:02:10.143Z,86.30
2019-05-15T03:07:09.649Z,86.30
2019-05-15T03:09:39.889Z,86.30
2019-05-15T03:12:09.077Z,86.00
2019-05-15T03:14:39.956Z,86.10
2019-05-15T03:17:09.761Z,86.10
2019-05-15T03:19:39.331Z,86.10
2019-05-15T03:27:09.127Z,85.80
2019-05-15T03:29:40.380Z,85.80
2019-05-15T03:32:22.934Z,85.50
2019-05-15T03:37:11.980Z,85.60
2019-05-15T03:39:39.331Z,85.60
2019-05-15T03:42:09.605Z,85.40
2019-05-15T03:47:09.278Z,85.20
2019-05-15T03:57:20.090Z,84.70
2019-05-15T03:59:48.987Z,84.90
2019-05-15T04:12:10.604Z,84.60
2019-05-15T04:14:39.554Z,84.70
2019-05-15T04:19:39.130Z,84.60
2019-05-15T04:22:09.195Z,84.40
2019-05-15T04:24:39.546Z,84.60
2019-05-15T04:27:10.527Z,84.40
2019-05-15T04:29:39.775Z,84.50
2019-05-15T04:32:10.499Z,84.40
2019-05-15T04:34:39.675Z,84.30
2019-05-15T04:37:09.361Z,83.90
2019-05-15T04:39:40.061Z,83.40
2019-05-15T04:42:08.432Z,83.90
2019-05-15T04:44:39.482Z,84.00
2019-05-15T04:47:09.465Z,84.20
2019-05-15T04:49:39.362Z,83.90
2019-05-15T04:52:10.121Z,83.90
2019-05-15T04:54:40.266Z,84.10
2019-05-15T04:59:39.096Z,83.40
2019-05-15T05:12:08.572Z,83.70
2019-05-15T05:14:39.101Z,83.70
2019-05-15T05:17:09.176Z,83.50
2019-05-15T05:19:40.199Z,83.50
2019-05-15T05:22:07.886Z,83.40
2019-05-15T05:27:08.597Z,83.20
2019-05-15T05:29:38.552Z,83.30
2019-05-15T05:32:08.965Z,83.10
2019-05-15T05:37:07.838Z,83.20
2019-05-15T05:39:36.407Z,83.30
2019-05-15T05:42:04.888Z,83.40
2019-05-15T05:44:33.299Z,83.50
2019-05-15T05:47:01.706Z,83.30
2019-05-15T05:49:30.100Z,83.40
2019-05-15T05:56:58.578Z,83.20
2019-05-15T06:01:58.985Z,83.20
2019-05-15T06:04:27.922Z,83.40
2019-05-15T06:07:07.042Z,83.40
2019-05-15T06:09:27.810Z,83.50
2019-05-15T06:11:58.305Z,83.40
2019-05-15T06:14:28.724Z,83.40
2019-05-15T06:16:58.806Z,83.40
2019-05-15T06:19:27.790Z,83.20
2019-05-15T06:22:00.734Z,83.30
2019-05-15T06:24:48.379Z,83.10
2019-05-15T06:27:16.684Z,82.90
2019-05-15T06:29:45.096Z,82.70
2019-05-15T06:32:13.494Z,82.90
2019-05-15T06:37:10.064Z,83.30
2019-05-15T06:39:39.076Z,83.20
2019-05-15T06:42:08.801Z,83.00
2019-05-15T06:44:38.803Z,82.90
2019-05-15T06:47:08.170Z,82.70
2019-05-15T06:52:08.666Z,82.50
2019-05-15T06:54:37.774Z,82.70
2019-05-15T06:57:09.130Z,82.90
2019-05-15T06:59:38.916Z,83.10
2019-05-15T07:02:08.060Z,82.80
2019-05-15T07:04:38.431Z,82.80
2019-05-15T07:07:10.651Z,82.90
2019-05-15T07:09:37.988Z,82.70
2019-05-15T07:12:08.046Z,82.70
2019-05-15T07:14:37.945Z,82.40
2019-05-15T07:17:09.198Z,82.30
2019-05-15T07:19:39.290Z,82.70
2019-05-15T07:22:09.183Z,82.60
2019-05-15T07:24:38.357Z,82.60
2019-05-15T07:27:08.020Z,82.60
2019-05-15T07:32:08.044Z,81.90
2019-05-15T07:34:37.909Z,82.60
2019-05-15T07:37:09.451Z,82.60
2019-05-15T07:39:38.195Z,82.50
2019-05-15T07:44:38.827Z,82.60
2019-05-15T07:47:08.803Z,82.50
2019-05-15T07:52:08.617Z,82.30
2019-05-15T07:57:08.796Z,82.10
2019-05-15T07:59:38.702Z,82.00
2019-05-15T08:02:08.452Z,82.10
2019-05-15T08:04:38.067Z,82.10
2019-05-15T08:07:08.979Z,82.10
2019-05-15T08:12:08.318Z,82.00
2019-05-15T08:14:38.768Z,81.90
2019-05-15T08:17:08.657Z,81.70
2019-05-15T08:24:38.936Z,81.30
2019-05-15T08:27:08.498Z,81.20
2019-05-15T08:29:38.333Z,81.30
2019-05-15T08:34:38.693Z,80.30
2019-05-15T08:37:07.925Z,80.90
2019-05-15T08:39:38.184Z,81.20
2019-05-15T08:42:07.984Z,80.30
2019-05-15T08:44:38.665Z,80.40
2019-05-15T08:47:08.202Z,80.10
2019-05-15T08:49:41.019Z,79.60
2019-05-15T08:52:09.844Z,79.20
2019-05-15T08:57:08.476Z,79.40
2019-05-15T08:59:38.118Z,79.20
2019-05-15T09:02:07.882Z,78.70
2019-05-15T09:04:38.646Z,79.70
2019-05-15T09:07:08.962Z,80.30
2019-05-15T09:09:38.326Z,79.60
2019-05-15T09:12:08.305Z,78.50
2019-05-15T09:17:08.635Z,78.10
2019-05-15T09:22:08.907Z,77.50
2019-05-15T09:24:37.930Z,77.50
2019-05-15T09:27:09.917Z,77.10
2019-05-15T09:29:38.063Z,77.40
2019-05-15T09:34:48.040Z,75.60
2019-05-15T09:37:08.590Z,75.50
2019-05-15T09:42:08.445Z,74.60
2019-05-15T09:44:39.026Z,74.90
2019-05-15T09:47:09.172Z,74.30
2019-05-15T09:49:39.124Z,75.20
2019-05-15T09:59:39.002Z,73.90
2019-05-15T10:02:09.209Z,73.70
2019-05-15T10:04:39.056Z,73.20
2019-05-15T10:12:09.109Z,73.20
2019-05-15T10:14:38.572Z,73.20
2019-05-15T10:17:20.824Z,72.70
2019-05-15T10:19:49.253Z,74.00
2019-05-15T10:22:18.664Z,73.80
2019-05-15T10:24:50.939Z,72.70
2019-05-15T10:27:19.117Z,72.70
2019-05-15T10:29:48.449Z,72.00
2019-05-15T10:32:19.462Z,72.10
2019-05-15T10:34:47.489Z,72.10
2019-05-15T10:37:18.365Z,72.50
2019-05-15T10:39:46.028Z,73.50
2019-05-15T10:42:14.441Z,73.50
2019-05-15T10:44:42.841Z,73.10
2019-05-15T10:47:11.241Z,73.00
2019-05-15T10:49:39.653Z,72.30
2019-05-15T10:52:08.765Z,72.10
2019-05-15T10:54:38.248Z,72.40
2019-05-15T10:57:08.643Z,72.10
2019-05-15T10:59:36.804Z,72.70
2019-05-15T11:02:05.353Z,71.10
2019-05-15T11:04:33.832Z,71.40
2019-05-15T11:07:02.224Z,71.20
2019-05-15T11:09:30.705Z,70.00
2019-05-15T11:11:59.124Z,70.60
2019-05-15T11:14:28.668Z,70.80
2019-05-15T11:16:58.966Z,70.00
2019-05-15T11:19:35.745Z,69.80
2019-05-15T11:21:58.352Z,70.40
2019-05-15T11:24:28.259Z,70.50
2019-05-15T11:26:59.297Z,71.20
2019-05-15T11:29:27.213Z,71.20
2019-05-15T11:31:57.922Z,69.90
2019-05-15T11:34:25.792Z,69.20
2019-05-15T11:36:54.199Z,69.40
2019-05-15T11:39:22.616Z,70.40
2019-05-15T11:41:51.022Z,68.10
2019-05-15T11:44:19.502Z,68.00
2019-05-15T11:46:49.573Z,67.50
2019-05-15T11:49:18.337Z,68.10
2019-05-15T11:51:49.116Z,66.90
2019-05-15T11:54:19.163Z,67.70
2019-05-15T11:56:48.933Z,67.80
2019-05-15T11:59:18.494Z,67.80
2019-05-15T12:01:48.916Z,67.60
2019-05-15T12:04:27.612Z,67.50
2019-05-15T12:06:58.672Z,67.60
2019-05-15T12:09:18.775Z,67.30
2019-05-15T12:11:47.443Z,68.20
2019-05-15T12:14:18.631Z,68.40
2019-05-15T12:17:02.264Z,68.50
2019-05-15T12:21:48.601Z,69.40
2019-05-15T12:24:16.181Z,69.90
2019-05-15T12:26:44.683Z,70.60
2019-05-15T12:29:13.088Z,69.90
2019-05-15T12:31:41.504Z,70.30
2019-05-15T12:34:10.027Z,69.50
2019-05-15T12:39:13.257Z,70.40
2019-05-15T13:01:40.021Z,71.00
2019-05-15T13:04:08.442Z,70.80
2019-05-15T13:06:47.913Z,71.10
2019-05-15T13:09:08.599Z,69.80
2019-05-15T13:11:37.806Z,69.50
2019-05-15T13:14:08.151Z,69.40
2019-05-15T13:16:38.891Z,69.50
2019-05-15T13:19:28.480Z,69.40
2019-05-15T13:29:43.754Z,70.20
2019-05-15T13:32:12.150Z,70.90
2019-05-15T13:34:40.573Z,71.00
2019-05-15T13:37:09.137Z,71.70
2019-05-15T13:39:39.137Z,71.90
2019-05-15T13:42:09.346Z,71.70
2019-05-15T13:44:38.679Z,72.10
2019-05-15T13:47:08.675Z,71.90
2019-05-15T13:49:38.630Z,71.30
2019-05-15T13:54:37.950Z,71.70
2019-05-15T13:57:08.628Z,72.00
2019-05-15T13:59:38.867Z,71.90
2019-05-15T14:02:08.505Z,71.80
2019-05-15T14:04:38.641Z,71.50
2019-05-15T14:07:08.519Z,71.50
2019-05-15T14:12:12.127Z,71.30
2019-05-15T14:14:38.550Z,71.20
2019-05-15T14:17:09.206Z,71.80
2019-05-15T14:19:38.606Z,71.70
2019-05-15T14:22:08.040Z,71.40
2019-05-15T14:24:38.216Z,70.60
2019-05-15T14:27:08.643Z,70.90
2019-05-15T14:32:08.155Z,70.80
2019-05-15T14:34:38.073Z,71.40
2019-05-15T14:37:08.807Z,71.10
2019-05-15T14:39:38.096Z,71.50
2019-05-15T14:42:09.076Z,71.90
2019-05-15T14:44:38.664Z,71.70
2019-05-15T14:47:08.812Z,71.60
2019-05-15T14:49:43.571Z,71.90
2019-05-15T14:54:38.461Z,73.00
2019-05-15T14:59:38.170Z,73.80
2019-05-15T15:02:08.892Z,73.90
2019-05-15T15:04:39.243Z,73.30
2019-05-15T15:07:08.737Z,73.50
2019-05-15T15:09:37.329Z,73.90
2019-05-15T15:12:07.771Z,74.00
2019-05-15T15:17:05.694Z,74.00
2019-05-15T15:19:34.103Z,74.10
2019-05-15T15:22:02.575Z,73.90
2019-05-15T15:24:30.991Z,74.10
2019-05-15T15:26:59.404Z,74.60
2019-05-15T15:29:28.193Z,74.00
2019-05-15T15:34:28.289Z,73.90
2019-05-15T15:36:57.935Z,73.40
2019-05-15T15:39:28.117Z,74.30
2019-05-15T15:41:57.892Z,74.50
2019-05-15T15:44:28.083Z,74.60
2019-05-15T15:46:58.910Z,74.40
2019-05-15T15:49:27.895Z,74.00
2019-05-15T15:51:58.129Z,73.10
2019-05-15T15:54:28.169Z,73.70
2019-05-15T15:59:24.964Z,74.40
2019-05-15T16:01:53.381Z,74.20
2019-05-15T16:04:21.778Z,74.40
2019-05-15T16:06:50.187Z,74.40
2019-05-15T16:09:18.915Z,74.20
2019-05-15T16:19:18.750Z,73.80
2019-05-15T16:21:49.048Z,74.10
2019-05-15T16:24:18.715Z,73.90
2019-05-15T16:26:49.698Z,74.10
2019-05-15T16:29:18.351Z,74.10
2019-05-15T16:31:49.071Z,74.10
2019-05-15T16:34:18.812Z,74.30
2019-05-15T16:36:48.912Z,74.40
2019-05-15T16:39:18.229Z,74.50
2019-05-15T16:41:48.986Z,74.70
2019-05-15T16:44:16.929Z,74.80
2019-05-15T16:46:47.980Z,74.40
2019-05-15T16:49:15.464Z,74.80
2019-05-15T16:51:43.864Z,74.80
2019-05-15T16:54:12.288Z,74.80
2019-05-15T16:56:40.781Z,75.40
2019-05-15T16:59:09.248Z,77.30
2019-05-15T17:01:39.374Z,77.50
2019-05-15T17:04:08.431Z,77.80
2019-05-15T17:06:38.697Z,77.70
2019-05-15T17:09:20.793Z,78.30
2019-05-15T17:11:38.858Z,78.70
2019-05-15T17:14:08.664Z,78.80
2019-05-15T17:16:38.735Z,79.10
2019-05-15T17:19:08.704Z,79.60
2019-05-15T17:21:37.230Z,79.80
2019-05-15T17:24:05.637Z,79.70
2019-05-15T17:26:34.031Z,80.00
2019-05-15T17:29:02.447Z,79.70
2019-05-15T17:31:30.848Z,79.60
2019-05-15T17:33:59.642Z,79.60
2019-05-15T17:38:58.123Z,79.70
2019-05-15T17:41:28.625Z,79.50
2019-05-15T17:43:57.989Z,79.50
2019-05-15T17:46:29.009Z,79.60
2019-05-15T17:49:16.037Z,79.60
2019-05-15T17:51:44.436Z,79.80
2019-05-15T17:54:12.845Z,79.70
2019-05-15T17:59:09.329Z,79.80
2019-05-15T18:01:38.318Z,79.70
2019-05-15T18:06:39.270Z,80.00
2019-05-15T18:09:08.711Z,79.90
2019-05-15T18:11:38.386Z,79.80
2019-05-15T18:19:08.267Z,79.70
2019-05-15T18:21:38.432Z,79.80
2019-05-15T18:24:09.269Z,79.40
2019-05-15T18:26:38.742Z,79.70
2019-05-15T18:31:38.079Z,79.80
2019-05-15T18:34:08.248Z,80.10
2019-05-15T18:39:08.381Z,80.50
2019-05-15T18:41:37.810Z,80.30
2019-05-15T18:49:03.657Z,80.00
2019-05-15T18:51:32.067Z,80.30
2019-05-15T18:54:00.478Z,80.30
2019-05-15T18:56:29.661Z,80.30
2019-05-15T18:58:58.360Z,80.50
2019-05-15T19:01:28.459Z,80.80
2019-05-15T19:03:58.202Z,81.00
2019-05-15T19:06:29.112Z,81.30
2019-05-15T19:08:57.132Z,81.30
2019-05-15T19:11:25.530Z,81.40
2019-05-15T19:13:53.979Z,81.70
2019-05-15T19:16:22.408Z,81.80
2019-05-15T19:21:18.884Z,82.00
2019-05-15T19:23:47.991Z,82.10
2019-05-15T19:26:18.354Z,82.10
2019-05-15T19:28:48.578Z,81.90
2019-05-15T19:31:26.647Z,81.70
2019-05-15T19:34:08.596Z,81.90
2019-05-15T19:36:38.236Z,81.80
2019-05-15T19:39:08.059Z,81.80
2019-05-15T19:41:38.256Z,82.00
2019-05-15T19:44:08.795Z,82.50
2019-05-15T19:46:38.665Z,82.00
2019-05-15T19:49:08.803Z,82.00
2019-05-15T19:51:38.139Z,82.50
2019-05-15T19:54:08.965Z,82.50
2019-05-15T19:59:05.026Z,82.70
2019-05-15T20:04:01.512Z,83.50
2019-05-15T20:08:58.630Z,83.90
2019-05-15T20:11:27.866Z,85.30
2019-05-15T20:13:58.290Z,85.60
2019-05-15T20:16:28.391Z,86.20
2019-05-15T20:18:58.072Z,86.60
2019-05-15T20:23:57.956Z,87.20
2019-05-15T20:26:28.647Z,87.80
2019-05-15T20:28:56.687Z,88.10
2019-05-15T20:31:25.085Z,88.90
2019-05-15T20:34:05.019Z,88.60
2019-05-15T20:36:23.631Z,88.60
2019-05-15T20:38:52.023Z,88.70
2019-05-15T20:41:20.708Z,88.70
2019-05-15T20:46:19.330Z,89.80
2019-05-15T20:53:48.618Z,91.00
2019-05-15T20:56:17.126Z,91.40
2019-05-15T21:01:18.070Z,91.60
2019-05-15T21:06:13.957Z,91.50
2019-05-15T21:08:42.349Z,91.40
2019-05-15T21:13:40.802Z,91.30
2019-05-15T21:18:37.969Z,91.00
2019-05-15T21:21:10.238Z,90.70
2019-05-15T21:23:38.683Z,90.40
2019-05-15T21:26:07.835Z,90.10
2019-05-15T21:28:39.003Z,89.70
2019-05-15T21:31:08.800Z,89.40
2019-05-15T21:36:07.729Z,89.10
2019-05-15T21:38:35.641Z,90.00
2019-05-15T21:41:04.121Z,90.50
2019-05-15T21:43:36.403Z,90.80
2019-05-15T21:46:04.897Z,91.00
2019-05-15T21:48:33.669Z,91.20
2019-05-15T21:51:02.076Z,91.70
2019-05-15T21:53:30.489Z,91.70
2019-05-15T21:55:59.056Z,91.90
2019-05-15T21:58:28.458Z,91.70
2019-05-15T22:00:57.502Z,91.60
2019-05-15T22:03:28.545Z,91.60
2019-05-15T22:05:58.180Z,91.60
2019-05-15T22:08:27.801Z,91.30
2019-05-15T22:10:56.459Z,91.30
2019-05-15T22:15:52.933Z,91.10
2019-05-15T22:20:49.591Z,91.30
2019-05-15T22:23:18.447Z,91.70
2019-05-15T22:25:49.579Z,91.90
2019-05-15T22:28:17.234Z,92.00
2019-05-15T22:30:47.834Z,92.10
2019-05-15T22:33:17.775Z,92.30
2019-05-15T22:35:48.663Z,92.40
2019-05-15T22:38:18.024Z,92.40
2019-05-15T22:40:48.416Z,92.50
2019-05-15T22:43:18.455Z,92.50
2019-05-15T22:45:48.324Z,92.60
2019-05-15T22:50:47.859Z,92.10
2019-05-15T22:53:17.823Z,91.80
2019-05-15T22:55:48.416Z,91.80
2019-05-15T22:58:16.582Z,91.40
2019-05-15T23:00:44.993Z,91.30
2019-05-15T23:03:13.411Z,91.30
2019-05-15T23:05:41.869Z,91.40
2019-05-15T23:08:10.357Z,91.80
2019-05-15T23:10:38.745Z,92.10
2019-05-15T23:13:07.158Z,92.20
2019-05-15T23:15:35.634Z,92.20
2019-05-15T23:18:04.323Z,92.50
2019-05-15T23:23:00.800Z,92.10
2019-05-15T23:27:58.337Z,91.70
2019-05-15T23:30:28.919Z,91.90
2019-05-15T23:32:58.045Z,91.90
2019-05-15T23:35:35.582Z,91.80
2019-05-15T23:40:28.898Z,91.50
2019-05-15T23:42:56.976Z,91.10
2019-05-15T23:45:25.369Z,91.20
2019-05-15T23:47:54.048Z,91.30
2019-05-15T23:50:22.522Z,91.40
2019-05-15T23:55:19.138Z,90.90
2019-05-15T23:57:48.434Z,90.40
